sensor_id;sensor_type;location;lat;lon;timestamp;temperature;humidity
16578;DHT22;8401;52.528;13.340;2023-06-22T00:01:28;22.00;99.90
16578;DHT22;8401;52.528;13.340;2023-06-22T00:03:54;21.90;99.90
16578;DHT22;8401;52.528;13.340;2023-06-22T00:06:19;21.90;99.90
16578;DHT22;8401;52.528;13.340;2023-06-22T00:08:45;21.90;99.90
16578;DHT22;8401;52.528;13.340;2023-06-22T00:11:11;21.80;99.90
16578;DHT22;8401;52.528;13.340;2023-06-22T00:13:37;21.80;99.90
16578;DHT22;8401;52.528;13.340;2023-06-22T00:16:03;21.80;99.90
16578;DHT22;8401;52.528;13.340;2023-06-22T00:18:29;21.70;99.90
16578;DHT22;8401;52.528;13.340;2023-06-22T00:20:55;21.70;99.90
16578;DHT22;8401;52.528;13.340;2023-06-22T00:23:23;21.80;99.90
16578;DHT22;8401;52.528;13.340;2023-06-22T00:25:49;21.70;99.90
16578;DHT22;8401;52.528;13.340;2023-06-22T00:28:15;21.60;99.90
16578;DHT22;8401;52.528;13.340;2023-06-22T00:30:40;21.60;99.90
16578;DHT22;8401;52.528;13.340;2023-06-22T00:33:06;21.50;99.90
16578;DHT22;8401;52.528;13.340;2023-06-22T00:35:33;21.40;99.90
16578;DHT22;8401;52.528;13.340;2023-06-22T00:38:00;21.50;99.90
16578;DHT22;8401;52.528;13.340;2023-06-22T00:40:30;21.50;99.90
16578;DHT22;8401;52.528;13.340;2023-06-22T00:42:56;21.50;99.90
16578;DHT22;8401;52.528;13.340;2023-06-22T00:45:23;21.40;99.90
16578;DHT22;8401;52.528;13.340;2023-06-22T00:47:57;21.40;99.90
16578;DHT22;8401;52.528;13.340;2023-06-22T00:50:25;21.40;99.90
16578;DHT22;8401;52.528;13.340;2023-06-22T00:52:53;21.30;99.90
16578;DHT22;8401;52.528;13.340;2023-06-22T00:55:20;21.40;99.90
16578;DHT22;8401;52.528;13.340;2023-06-22T00:57:47;21.40;99.90
16578;DHT22;8401;52.528;13.340;2023-06-22T01:00:14;21.30;99.90
16578;DHT22;8401;52.528;13.340;2023-06-22T01:02:43;21.30;99.90
16578;DHT22;8401;52.528;13.340;2023-06-22T01:05:14;21.30;99.90
16578;DHT22;8401;52.528;13.340;2023-06-22T01:11:06;21.20;99.90
16578;DHT22;8401;52.528;13.340;2023-06-22T01:16:22;21.20;99.90
16578;DHT22;8401;52.528;13.340;2023-06-22T01:18:52;21.10;99.90
16578;DHT22;8401;52.528;13.340;2023-06-22T01:21:19;21.10;99.90
16578;DHT22;8401;52.528;13.340;2023-06-22T01:24:15;21.10;99.90
16578;DHT22;8401;52.528;13.340;2023-06-22T01:29:21;21.10;99.90
16578;DHT22;8401;52.528;13.340;2023-06-22T01:31:48;21.10;99.90
16578;DHT22;8401;52.528;13.340;2023-06-22T01:34:15;21.10;99.90
16578;DHT22;8401;52.528;13.340;2023-06-22T01:36:42;21.10;99.90
16578;DHT22;8401;52.528;13.340;2023-06-22T01:39:09;21.00;99.90
16578;DHT22;8401;52.528;13.340;2023-06-22T01:41:37;21.10;99.90
16578;DHT22;8401;52.528;13.340;2023-06-22T01:44:05;21.00;99.90
16578;DHT22;8401;52.528;13.340;2023-06-22T01:46:35;20.90;99.90
16578;DHT22;8401;52.528;13.340;2023-06-22T01:49:04;20.90;99.90
16578;DHT22;8401;52.528;13.340;2023-06-22T01:51:31;21.00;99.90
16578;DHT22;8401;52.528;13.340;2023-06-22T01:53:57;21.00;99.90
16578;DHT22;8401;52.528;13.340;2023-06-22T01:56:23;21.10;99.90
16578;DHT22;8401;52.528;13.340;2023-06-22T02:01:54;21.10;99.90
16578;DHT22;8401;52.528;13.340;2023-06-22T02:04:26;21.10;99.90
16578;DHT22;8401;52.528;13.340;2023-06-22T02:06:56;21.00;99.90
16578;DHT22;8401;52.528;13.340;2023-06-22T02:09:23;21.00;99.90
16578;DHT22;8401;52.528;13.340;2023-06-22T02:11:52;21.00;99.90
16578;DHT22;8401;52.528;13.340;2023-06-22T02:14:21;21.00;99.90
16578;DHT22;8401;52.528;13.340;2023-06-22T02:16:47;21.20;99.90
16578;DHT22;8401;52.528;13.340;2023-06-22T02:19:13;21.10;99.90
16578;DHT22;8401;52.528;13.340;2023-06-22T02:21:42;21.20;99.90
16578;DHT22;8401;52.528;13.340;2023-06-22T02:24:07;21.10;99.90
16578;DHT22;8401;52.528;13.340;2023-06-22T02:26:33;21.00;99.90
16578;DHT22;8401;52.528;13.340;2023-06-22T02:28:59;21.00;99.90
16578;DHT22;8401;52.528;13.340;2023-06-22T02:31:25;21.00;99.90
16578;DHT22;8401;52.528;13.340;2023-06-22T02:33:59;20.90;99.90
16578;DHT22;8401;52.528;13.340;2023-06-22T02:36:25;21.00;99.90
16578;DHT22;8401;52.528;13.340;2023-06-22T02:38:52;21.00;99.90
16578;DHT22;8401;52.528;13.340;2023-06-22T02:41:18;21.20;99.90
16578;DHT22;8401;52.528;13.340;2023-06-22T02:43:47;21.20;99.90
16578;DHT22;8401;52.528;13.340;2023-06-22T02:46:13;21.30;99.90
16578;DHT22;8401;52.528;13.340;2023-06-22T02:48:40;21.40;99.90
16578;DHT22;8401;52.528;13.340;2023-06-22T02:51:06;21.40;99.90
16578;DHT22;8401;52.528;13.340;2023-06-22T02:53:32;21.30;99.90
16578;DHT22;8401;52.528;13.340;2023-06-22T02:55:57;21.20;99.90
16578;DHT22;8401;52.528;13.340;2023-06-22T02:58:23;21.10;99.90
16578;DHT22;8401;52.528;13.340;2023-06-22T03:00:49;21.20;99.90
16578;DHT22;8401;52.528;13.340;2023-06-22T03:03:18;21.20;99.90
16578;DHT22;8401;52.528;13.340;2023-06-22T03:05:44;21.10;99.90
16578;DHT22;8401;52.528;13.340;2023-06-22T03:08:10;21.10;99.90
16578;DHT22;8401;52.528;13.340;2023-06-22T03:10:35;21.30;99.90
16578;DHT22;8401;52.528;13.340;2023-06-22T03:13:01;21.40;99.90
16578;DHT22;8401;52.528;13.340;2023-06-22T03:15:26;21.60;99.90
16578;DHT22;8401;52.528;13.340;2023-06-22T03:17:54;21.70;99.90
16578;DHT22;8401;52.528;13.340;2023-06-22T03:20:20;21.60;99.90
16578;DHT22;8401;52.528;13.340;2023-06-22T03:22:46;21.40;99.90
16578;DHT22;8401;52.528;13.340;2023-06-22T03:25:14;21.60;99.90
16578;DHT22;8401;52.528;13.340;2023-06-22T03:27:40;21.40;99.90
16578;DHT22;8401;52.528;13.340;2023-06-22T03:30:09;21.30;99.90
16578;DHT22;8401;52.528;13.340;2023-06-22T03:32:35;21.20;99.90
16578;DHT22;8401;52.528;13.340;2023-06-22T03:35:01;21.20;99.90
16578;DHT22;8401;52.528;13.340;2023-06-22T03:37:28;21.20;99.90
16578;DHT22;8401;52.528;13.340;2023-06-22T03:39:53;21.20;99.90
16578;DHT22;8401;52.528;13.340;2023-06-22T03:42:19;21.20;99.90
16578;DHT22;8401;52.528;13.340;2023-06-22T03:44:45;21.40;99.90
16578;DHT22;8401;52.528;13.340;2023-06-22T03:47:10;21.40;99.90
16578;DHT22;8401;52.528;13.340;2023-06-22T03:49:36;21.40;99.90
16578;DHT22;8401;52.528;13.340;2023-06-22T03:52:02;21.30;99.90
16578;DHT22;8401;52.528;13.340;2023-06-22T03:54:29;21.20;99.90
16578;DHT22;8401;52.528;13.340;2023-06-22T03:56:56;21.30;99.90
16578;DHT22;8401;52.528;13.340;2023-06-22T03:59:21;21.30;99.90
16578;DHT22;8401;52.528;13.340;2023-06-22T04:01:47;21.60;99.90
16578;DHT22;8401;52.528;13.340;2023-06-22T04:04:13;21.50;99.90
16578;DHT22;8401;52.528;13.340;2023-06-22T04:06:38;21.50;99.90
16578;DHT22;8401;52.528;13.340;2023-06-22T04:09:05;21.50;99.90
16578;DHT22;8401;52.528;13.340;2023-06-22T04:11:31;21.60;99.90
16578;DHT22;8401;52.528;13.340;2023-06-22T04:13:57;21.60;99.90
16578;DHT22;8401;52.528;13.340;2023-06-22T04:16:22;21.40;99.90
16578;DHT22;8401;52.528;13.340;2023-06-22T04:18:48;21.50;99.90
16578;DHT22;8401;52.528;13.340;2023-06-22T04:21:14;21.50;99.90
16578;DHT22;8401;52.528;13.340;2023-06-22T04:23:39;21.50;99.90
16578;DHT22;8401;52.528;13.340;2023-06-22T04:26:05;21.50;99.90
16578;DHT22;8401;52.528;13.340;2023-06-22T04:28:31;21.40;99.90
16578;DHT22;8401;52.528;13.340;2023-06-22T04:31:01;21.30;99.90
16578;DHT22;8401;52.528;13.340;2023-06-22T04:33:28;21.50;99.90
16578;DHT22;8401;52.528;13.340;2023-06-22T04:35:55;21.60;99.90
16578;DHT22;8401;52.528;13.340;2023-06-22T04:38:23;21.70;99.90
16578;DHT22;8401;52.528;13.340;2023-06-22T04:40:49;21.80;99.90
16578;DHT22;8401;52.528;13.340;2023-06-22T04:43:15;21.70;99.90
16578;DHT22;8401;52.528;13.340;2023-06-22T04:45:41;21.50;99.90
16578;DHT22;8401;52.528;13.340;2023-06-22T05:01:21;21.60;99.90
16578;DHT22;8401;52.528;13.340;2023-06-22T05:03:48;22.70;99.90
16578;DHT22;8401;52.528;13.340;2023-06-22T05:06:13;22.50;99.90
16578;DHT22;8401;52.528;13.340;2023-06-22T05:08:40;22.70;99.90
16578;DHT22;8401;52.528;13.340;2023-06-22T05:11:05;22.90;99.90
16578;DHT22;8401;52.528;13.340;2023-06-22T05:13:32;23.10;99.90
16578;DHT22;8401;52.528;13.340;2023-06-22T05:15:58;23.20;99.90
16578;DHT22;8401;52.528;13.340;2023-06-22T05:18:30;23.00;99.90
16578;DHT22;8401;52.528;13.340;2023-06-22T05:20:56;23.00;99.90
16578;DHT22;8401;52.528;13.340;2023-06-22T05:23:22;23.00;99.90
16578;DHT22;8401;52.528;13.340;2023-06-22T05:25:47;23.00;99.90
16578;DHT22;8401;52.528;13.340;2023-06-22T05:28:13;23.30;99.90
16578;DHT22;8401;52.528;13.340;2023-06-22T05:30:39;23.40;99.90
16578;DHT22;8401;52.528;13.340;2023-06-22T05:33:04;23.30;99.90
16578;DHT22;8401;52.528;13.340;2023-06-22T05:35:31;23.30;99.90
16578;DHT22;8401;52.528;13.340;2023-06-22T05:37:56;23.30;99.90
16578;DHT22;8401;52.528;13.340;2023-06-22T05:40:22;23.40;99.90
16578;DHT22;8401;52.528;13.340;2023-06-22T05:42:47;23.30;99.90
16578;DHT22;8401;52.528;13.340;2023-06-22T05:45:13;23.30;99.90
16578;DHT22;8401;52.528;13.340;2023-06-22T05:47:39;23.30;99.90
16578;DHT22;8401;52.528;13.340;2023-06-22T05:50:05;23.40;99.90
16578;DHT22;8401;52.528;13.340;2023-06-22T05:52:33;23.60;99.90
16578;DHT22;8401;52.528;13.340;2023-06-22T05:54:59;23.70;99.90
16578;DHT22;8401;52.528;13.340;2023-06-22T05:57:25;23.70;99.90
16578;DHT22;8401;52.528;13.340;2023-06-22T05:59:50;23.70;99.90
16578;DHT22;8401;52.528;13.340;2023-06-22T06:02:17;23.80;99.90
16578;DHT22;8401;52.528;13.340;2023-06-22T06:04:42;23.90;99.90
16578;DHT22;8401;52.528;13.340;2023-06-22T06:07:08;23.90;99.90
16578;DHT22;8401;52.528;13.340;2023-06-22T06:09:34;23.80;99.90
16578;DHT22;8401;52.528;13.340;2023-06-22T06:11:59;23.70;99.90
16578;DHT22;8401;52.528;13.340;2023-06-22T06:14:25;23.90;99.90
16578;DHT22;8401;52.528;13.340;2023-06-22T06:16:50;24.00;99.90
16578;DHT22;8401;52.528;13.340;2023-06-22T06:19:16;24.10;99.90
16578;DHT22;8401;52.528;13.340;2023-06-22T06:21:42;24.00;99.90
16578;DHT22;8401;52.528;13.340;2023-06-22T06:24:07;24.00;99.90
16578;DHT22;8401;52.528;13.340;2023-06-22T06:26:33;23.90;99.90
16578;DHT22;8401;52.528;13.340;2023-06-22T06:29:01;24.00;99.90
16578;DHT22;8401;52.528;13.340;2023-06-22T06:31:27;24.00;99.90
16578;DHT22;8401;52.528;13.340;2023-06-22T06:33:54;24.10;99.90
16578;DHT22;8401;52.528;13.340;2023-06-22T06:36:20;24.20;99.90
16578;DHT22;8401;52.528;13.340;2023-06-22T06:38:46;24.30;99.90
16578;DHT22;8401;52.528;13.340;2023-06-22T06:41:15;24.40;99.90
16578;DHT22;8401;52.528;13.340;2023-06-22T06:43:41;24.60;99.90
16578;DHT22;8401;52.528;13.340;2023-06-22T06:46:09;24.70;99.90
16578;DHT22;8401;52.528;13.340;2023-06-22T06:48:34;24.60;99.90
16578;DHT22;8401;52.528;13.340;2023-06-22T06:51:00;24.60;99.90
16578;DHT22;8401;52.528;13.340;2023-06-22T06:53:26;24.80;99.90
16578;DHT22;8401;52.528;13.340;2023-06-22T06:55:52;24.90;99.90
16578;DHT22;8401;52.528;13.340;2023-06-22T06:58:18;25.10;99.90
16578;DHT22;8401;52.528;13.340;2023-06-22T07:00:43;25.20;99.90
16578;DHT22;8401;52.528;13.340;2023-06-22T07:03:09;25.40;99.90
16578;DHT22;8401;52.528;13.340;2023-06-22T07:05:35;25.40;99.90
16578;DHT22;8401;52.528;13.340;2023-06-22T07:08:01;25.50;99.90
16578;DHT22;8401;52.528;13.340;2023-06-22T07:10:27;25.60;99.90
16578;DHT22;8401;52.528;13.340;2023-06-22T07:12:53;25.80;99.90
16578;DHT22;8401;52.528;13.340;2023-06-22T07:15:19;26.10;99.90
16578;DHT22;8401;52.528;13.340;2023-06-22T07:17:44;26.50;99.90
16578;DHT22;8401;52.528;13.340;2023-06-22T07:20:10;26.80;99.90
16578;DHT22;8401;52.528;13.340;2023-06-22T07:22:43;26.90;99.90
16578;DHT22;8401;52.528;13.340;2023-06-22T07:25:10;27.00;99.90
16578;DHT22;8401;52.528;13.340;2023-06-22T07:27:42;26.80;99.90
16578;DHT22;8401;52.528;13.340;2023-06-22T07:30:09;27.00;99.90
16578;DHT22;8401;52.528;13.340;2023-06-22T07:32:35;26.90;99.90
16578;DHT22;8401;52.528;13.340;2023-06-22T07:35:01;26.90;99.90
16578;DHT22;8401;52.528;13.340;2023-06-22T07:37:28;27.50;99.90
16578;DHT22;8401;52.528;13.340;2023-06-22T07:39:54;27.70;99.90
16578;DHT22;8401;52.528;13.340;2023-06-22T07:42:24;28.00;99.90
16578;DHT22;8401;52.528;13.340;2023-06-22T07:44:50;28.30;99.90
16578;DHT22;8401;52.528;13.340;2023-06-22T07:47:16;28.20;99.90
16578;DHT22;8401;52.528;13.340;2023-06-22T07:49:45;28.10;99.90
16578;DHT22;8401;52.528;13.340;2023-06-22T07:52:10;28.10;99.90
16578;DHT22;8401;52.528;13.340;2023-06-22T07:54:36;28.00;99.90
16578;DHT22;8401;52.528;13.340;2023-06-22T07:57:02;28.00;99.90
16578;DHT22;8401;52.528;13.340;2023-06-22T07:59:28;28.00;99.90
16578;DHT22;8401;52.528;13.340;2023-06-22T08:01:55;28.30;99.90
16578;DHT22;8401;52.528;13.340;2023-06-22T08:04:21;28.30;99.90
16578;DHT22;8401;52.528;13.340;2023-06-22T08:06:46;28.40;99.90
16578;DHT22;8401;52.528;13.340;2023-06-22T08:09:12;28.60;99.90
16578;DHT22;8401;52.528;13.340;2023-06-22T08:11:38;28.80;99.90
16578;DHT22;8401;52.528;13.340;2023-06-22T08:14:03;29.50;99.90
16578;DHT22;8401;52.528;13.340;2023-06-22T08:16:29;29.40;99.90
16578;DHT22;8401;52.528;13.340;2023-06-22T08:18:55;29.60;99.90
16578;DHT22;8401;52.528;13.340;2023-06-22T08:21:20;29.50;99.90
16578;DHT22;8401;52.528;13.340;2023-06-22T08:23:46;29.20;99.90
16578;DHT22;8401;52.528;13.340;2023-06-22T08:26:12;28.80;99.90
16578;DHT22;8401;52.528;13.340;2023-06-22T08:28:37;28.60;99.90
16578;DHT22;8401;52.528;13.340;2023-06-22T08:31:03;28.30;99.90
16578;DHT22;8401;52.528;13.340;2023-06-22T08:33:29;28.20;99.90
16578;DHT22;8401;52.528;13.340;2023-06-22T08:35:56;28.00;99.90
16578;DHT22;8401;52.528;13.340;2023-06-22T08:38:22;27.80;99.90
16578;DHT22;8401;52.528;13.340;2023-06-22T08:40:47;27.70;99.90
16578;DHT22;8401;52.528;13.340;2023-06-22T08:43:14;27.50;99.90
16578;DHT22;8401;52.528;13.340;2023-06-22T08:45:40;27.40;99.90
16578;DHT22;8401;52.528;13.340;2023-06-22T08:48:05;27.40;99.90
16578;DHT22;8401;52.528;13.340;2023-06-22T08:50:31;27.30;99.90
16578;DHT22;8401;52.528;13.340;2023-06-22T08:52:57;27.50;99.90
16578;DHT22;8401;52.528;13.340;2023-06-22T08:55:22;27.70;99.90
16578;DHT22;8401;52.528;13.340;2023-06-22T08:57:48;27.70;99.90
16578;DHT22;8401;52.528;13.340;2023-06-22T09:00:14;27.70;99.90
16578;DHT22;8401;52.528;13.340;2023-06-22T09:02:46;27.60;99.90
16578;DHT22;8401;52.528;13.340;2023-06-22T09:05:12;27.60;99.90
16578;DHT22;8401;52.528;13.340;2023-06-22T09:07:38;27.80;99.90
16578;DHT22;8401;52.528;13.340;2023-06-22T09:10:05;27.90;99.90
16578;DHT22;8401;52.528;13.340;2023-06-22T09:12:31;28.30;99.90
16578;DHT22;8401;52.528;13.340;2023-06-22T09:14:58;28.80;99.90
16578;DHT22;8401;52.528;13.340;2023-06-22T09:17:28;29.20;99.90
16578;DHT22;8401;52.528;13.340;2023-06-22T09:19:53;29.60;99.90
16578;DHT22;8401;52.528;13.340;2023-06-22T09:22:19;30.00;99.90
16578;DHT22;8401;52.528;13.340;2023-06-22T09:24:45;30.10;99.90
16578;DHT22;8401;52.528;13.340;2023-06-22T09:27:11;30.20;99.90
16578;DHT22;8401;52.528;13.340;2023-06-22T09:29:36;30.50;99.90
16578;DHT22;8401;52.528;13.340;2023-06-22T09:32:02;30.50;99.90
16578;DHT22;8401;52.528;13.340;2023-06-22T09:34:28;30.30;99.90
16578;DHT22;8401;52.528;13.340;2023-06-22T09:36:53;30.00;99.90
16578;DHT22;8401;52.528;13.340;2023-06-22T09:39:20;29.80;99.90
16578;DHT22;8401;52.528;13.340;2023-06-22T09:41:46;29.60;99.90
16578;DHT22;8401;52.528;13.340;2023-06-22T09:44:11;29.60;99.90
16578;DHT22;8401;52.528;13.340;2023-06-22T09:46:37;30.10;99.90
16578;DHT22;8401;52.528;13.340;2023-06-22T09:49:03;30.30;99.90
16578;DHT22;8401;52.528;13.340;2023-06-22T09:51:28;29.80;99.90
16578;DHT22;8401;52.528;13.340;2023-06-22T09:53:54;30.10;99.90
16578;DHT22;8401;52.528;13.340;2023-06-22T09:56:20;30.80;99.90
16578;DHT22;8401;52.528;13.340;2023-06-22T09:58:46;31.60;99.90
16578;DHT22;8401;52.528;13.340;2023-06-22T10:01:13;31.90;99.90
16578;DHT22;8401;52.528;13.340;2023-06-22T10:03:40;32.30;99.90
16578;DHT22;8401;52.528;13.340;2023-06-22T10:06:07;31.50;99.90
16578;DHT22;8401;52.528;13.340;2023-06-22T10:08:32;32.40;99.90
16578;DHT22;8401;52.528;13.340;2023-06-22T10:10:58;32.40;99.90
16578;DHT22;8401;52.528;13.340;2023-06-22T10:13:24;32.20;99.90
16578;DHT22;8401;52.528;13.340;2023-06-22T10:15:49;32.20;99.90
16578;DHT22;8401;52.528;13.340;2023-06-22T10:18:17;32.80;99.90
16578;DHT22;8401;52.528;13.340;2023-06-22T10:20:44;33.10;99.80
16578;DHT22;8401;52.528;13.340;2023-06-22T10:23:09;33.10;99.60
16578;DHT22;8401;52.528;13.340;2023-06-22T10:25:35;32.00;99.90
16578;DHT22;8401;52.528;13.340;2023-06-22T10:28:00;33.50;99.90
16578;DHT22;8401;52.528;13.340;2023-06-22T10:30:26;34.50;99.10
16578;DHT22;8401;52.528;13.340;2023-06-22T10:32:52;33.20;99.30
16578;DHT22;8401;52.528;13.340;2023-06-22T10:35:17;34.80;99.20
16578;DHT22;8401;52.528;13.340;2023-06-22T10:37:44;36.30;97.70
16578;DHT22;8401;52.528;13.340;2023-06-22T10:40:11;36.60;96.10
16578;DHT22;8401;52.528;13.340;2023-06-22T10:42:37;36.90;95.80
16578;DHT22;8401;52.528;13.340;2023-06-22T10:45:03;36.40;95.10
16578;DHT22;8401;52.528;13.340;2023-06-22T10:47:29;36.50;94.90
16578;DHT22;8401;52.528;13.340;2023-06-22T10:49:54;36.80;94.10
16578;DHT22;8401;52.528;13.340;2023-06-22T10:52:20;36.90;93.70
16578;DHT22;8401;52.528;13.340;2023-06-22T10:54:46;35.90;94.20
16578;DHT22;8401;52.528;13.340;2023-06-22T10:57:11;34.20;94.50
16578;DHT22;8401;52.528;13.340;2023-06-22T10:59:37;34.30;94.80
16578;DHT22;8401;52.528;13.340;2023-06-22T11:02:03;33.90;95.10
16578;DHT22;8401;52.528;13.340;2023-06-22T11:04:28;34.30;95.30
16578;DHT22;8401;52.528;13.340;2023-06-22T11:06:54;34.60;94.90
16578;DHT22;8401;52.528;13.340;2023-06-22T11:09:21;34.90;94.90
16578;DHT22;8401;52.528;13.340;2023-06-22T11:11:48;35.00;94.80
16578;DHT22;8401;52.528;13.340;2023-06-22T11:14:14;35.00;93.90
16578;DHT22;8401;52.528;13.340;2023-06-22T11:16:39;33.40;94.70
16578;DHT22;8401;52.528;13.340;2023-06-22T11:19:05;33.50;94.80
16578;DHT22;8401;52.528;13.340;2023-06-22T11:21:31;33.20;94.80
16578;DHT22;8401;52.528;13.340;2023-06-22T11:23:58;33.30;94.90
16578;DHT22;8401;52.528;13.340;2023-06-22T11:26:24;33.20;94.30
16578;DHT22;8401;52.528;13.340;2023-06-22T11:28:52;32.40;94.80
16578;DHT22;8401;52.528;13.340;2023-06-22T11:31:18;32.00;94.80
16578;DHT22;8401;52.528;13.340;2023-06-22T11:33:44;31.80;94.60
16578;DHT22;8401;52.528;13.340;2023-06-22T11:36:11;32.80;94.30
16578;DHT22;8401;52.528;13.340;2023-06-22T11:38:37;33.00;94.70
16578;DHT22;8401;52.528;13.340;2023-06-22T11:41:06;34.90;93.90
16578;DHT22;8401;52.528;13.340;2023-06-22T11:43:32;35.00;93.20
16578;DHT22;8401;52.528;13.340;2023-06-22T11:45:57;35.10;92.70
16578;DHT22;8401;52.528;13.340;2023-06-22T11:48:26;35.60;92.60
16578;DHT22;8401;52.528;13.340;2023-06-22T11:50:52;36.50;92.20
16578;DHT22;8401;52.528;13.340;2023-06-22T11:53:17;36.90;91.40
16578;DHT22;8401;52.528;13.340;2023-06-22T11:55:44;35.20;91.70
16578;DHT22;8401;52.528;13.340;2023-06-22T11:58:10;34.70;92.00
16578;DHT22;8401;52.528;13.340;2023-06-22T12:00:37;34.90;92.00
16578;DHT22;8401;52.528;13.340;2023-06-22T12:03:03;33.30;92.20
16578;DHT22;8401;52.528;13.340;2023-06-22T12:05:28;35.30;92.00
16578;DHT22;8401;52.528;13.340;2023-06-22T12:07:54;36.20;91.00
16578;DHT22;8401;52.528;13.340;2023-06-22T12:10:24;35.80;90.80
16578;DHT22;8401;52.528;13.340;2023-06-22T12:12:50;35.10;90.90
16578;DHT22;8401;52.528;13.340;2023-06-22T12:15:16;34.30;91.30
16578;DHT22;8401;52.528;13.340;2023-06-22T12:17:41;34.10;91.30
16578;DHT22;8401;52.528;13.340;2023-06-22T12:20:07;33.20;91.90
16578;DHT22;8401;52.528;13.340;2023-06-22T12:22:34;33.10;92.50
16578;DHT22;8401;52.528;13.340;2023-06-22T12:25:00;33.30;92.50
16578;DHT22;8401;52.528;13.340;2023-06-22T12:27:26;32.80;92.70
16578;DHT22;8401;52.528;13.340;2023-06-22T12:29:52;32.90;92.80
16578;DHT22;8401;52.528;13.340;2023-06-22T12:32:17;33.00;92.20
16578;DHT22;8401;52.528;13.340;2023-06-22T12:34:44;32.80;92.60
16578;DHT22;8401;52.528;13.340;2023-06-22T12:37:10;32.20;93.10
16578;DHT22;8401;52.528;13.340;2023-06-22T12:39:36;31.70;93.50
16578;DHT22;8401;52.528;13.340;2023-06-22T12:42:02;32.10;93.10
16578;DHT22;8401;52.528;13.340;2023-06-22T12:44:27;31.90;93.30
16578;DHT22;8401;52.528;13.340;2023-06-22T12:46:53;32.10;93.00
16578;DHT22;8401;52.528;13.340;2023-06-22T12:49:19;32.20;93.10
16578;DHT22;8401;52.528;13.340;2023-06-22T12:51:45;31.50;93.80
16578;DHT22;8401;52.528;13.340;2023-06-22T12:54:11;32.20;93.20
16578;DHT22;8401;52.528;13.340;2023-06-22T12:56:37;32.20;93.10
16578;DHT22;8401;52.528;13.340;2023-06-22T12:59:04;32.60;92.80
16578;DHT22;8401;52.528;13.340;2023-06-22T13:01:30;32.60;92.90
16578;DHT22;8401;52.528;13.340;2023-06-22T13:04:00;32.60;92.50
16578;DHT22;8401;52.528;13.340;2023-06-22T13:06:26;32.40;92.90
16578;DHT22;8401;52.528;13.340;2023-06-22T13:08:51;32.40;92.70
16578;DHT22;8401;52.528;13.340;2023-06-22T13:11:17;32.40;93.10
16578;DHT22;8401;52.528;13.340;2023-06-22T13:13:44;32.20;93.20
16578;DHT22;8401;52.528;13.340;2023-06-22T13:16:10;32.40;93.30
16578;DHT22;8401;52.528;13.340;2023-06-22T13:18:36;32.30;93.30
16578;DHT22;8401;52.528;13.340;2023-06-22T13:21:02;32.60;93.30
16578;DHT22;8401;52.528;13.340;2023-06-22T13:23:28;32.20;93.30
16578;DHT22;8401;52.528;13.340;2023-06-22T13:25:53;32.50;93.00
16578;DHT22;8401;52.528;13.340;2023-06-22T13:28:19;32.60;93.00
16578;DHT22;8401;52.528;13.340;2023-06-22T13:30:46;32.60;93.00
16578;DHT22;8401;52.528;13.340;2023-06-22T13:33:13;32.40;93.40
16578;DHT22;8401;52.528;13.340;2023-06-22T13:35:39;32.30;92.90
16578;DHT22;8401;52.528;13.340;2023-06-22T13:38:05;32.00;93.60
16578;DHT22;8401;52.528;13.340;2023-06-22T13:40:30;32.00;93.40
16578;DHT22;8401;52.528;13.340;2023-06-22T13:42:56;32.00;93.00
16578;DHT22;8401;52.528;13.340;2023-06-22T13:45:22;31.80;93.30
16578;DHT22;8401;52.528;13.340;2023-06-22T13:47:48;31.80;93.70
16578;DHT22;8401;52.528;13.340;2023-06-22T13:50:13;32.00;93.60
16578;DHT22;8401;52.528;13.340;2023-06-22T13:52:39;31.60;93.60
16578;DHT22;8401;52.528;13.340;2023-06-22T13:55:05;32.00;93.40
16578;DHT22;8401;52.528;13.340;2023-06-22T13:57:32;31.90;93.40
16578;DHT22;8401;52.528;13.340;2023-06-22T13:59:59;31.90;93.60
16578;DHT22;8401;52.528;13.340;2023-06-22T14:02:26;31.80;93.60
16578;DHT22;8401;52.528;13.340;2023-06-22T14:04:52;31.80;93.40
16578;DHT22;8401;52.528;13.340;2023-06-22T14:07:17;32.00;93.60
16578;DHT22;8401;52.528;13.340;2023-06-22T14:09:44;31.90;93.70
16578;DHT22;8401;52.528;13.340;2023-06-22T14:12:11;32.10;93.40
16578;DHT22;8401;52.528;13.340;2023-06-22T14:14:36;32.10;93.60
16578;DHT22;8401;52.528;13.340;2023-06-22T14:17:03;32.00;93.70
16578;DHT22;8401;52.528;13.340;2023-06-22T14:19:29;31.80;93.50
16578;DHT22;8401;52.528;13.340;2023-06-22T14:21:55;31.90;93.50
16578;DHT22;8401;52.528;13.340;2023-06-22T14:24:22;31.80;93.60
16578;DHT22;8401;52.528;13.340;2023-06-22T14:26:48;31.60;93.70
16578;DHT22;8401;52.528;13.340;2023-06-22T14:29:13;31.60;93.50
16578;DHT22;8401;52.528;13.340;2023-06-22T14:31:39;31.30;93.70
16578;DHT22;8401;52.528;13.340;2023-06-22T14:34:05;31.30;93.90
16578;DHT22;8401;52.528;13.340;2023-06-22T14:36:31;31.30;93.80
16578;DHT22;8401;52.528;13.340;2023-06-22T14:38:57;31.30;93.90
16578;DHT22;8401;52.528;13.340;2023-06-22T14:41:23;31.10;94.10
16578;DHT22;8401;52.528;13.340;2023-06-22T14:43:50;31.00;93.90
16578;DHT22;8401;52.528;13.340;2023-06-22T14:46:16;31.10;94.30
16578;DHT22;8401;52.528;13.340;2023-06-22T14:48:43;31.30;94.20
16578;DHT22;8401;52.528;13.340;2023-06-22T14:51:09;31.50;93.80
16578;DHT22;8401;52.528;13.340;2023-06-22T14:53:35;31.30;94.00
16578;DHT22;8401;52.528;13.340;2023-06-22T14:56:01;31.00;94.00
16578;DHT22;8401;52.528;13.340;2023-06-22T14:58:30;31.10;94.00
16578;DHT22;8401;52.528;13.340;2023-06-22T15:00:59;31.10;94.20
16578;DHT22;8401;52.528;13.340;2023-06-22T15:03:25;31.10;94.50
16578;DHT22;8401;52.528;13.340;2023-06-22T15:05:53;31.00;94.30
16578;DHT22;8401;52.528;13.340;2023-06-22T15:08:19;30.80;94.50
16578;DHT22;8401;52.528;13.340;2023-06-22T15:10:45;31.00;94.60
16578;DHT22;8401;52.528;13.340;2023-06-22T15:13:10;31.10;94.30
16578;DHT22;8401;52.528;13.340;2023-06-22T15:15:36;31.00;94.30
16578;DHT22;8401;52.528;13.340;2023-06-22T15:18:02;30.90;94.30
16578;DHT22;8401;52.528;13.340;2023-06-22T15:20:28;31.10;94.50
16578;DHT22;8401;52.528;13.340;2023-06-22T15:22:53;31.10;94.50
16578;DHT22;8401;52.528;13.340;2023-06-22T15:25:19;31.10;94.70
16578;DHT22;8401;52.528;13.340;2023-06-22T15:27:44;31.30;94.50
16578;DHT22;8401;52.528;13.340;2023-06-22T15:30:10;31.30;94.30
16578;DHT22;8401;52.528;13.340;2023-06-22T15:32:36;31.30;94.40
16578;DHT22;8401;52.528;13.340;2023-06-22T15:35:02;31.10;94.40
16578;DHT22;8401;52.528;13.340;2023-06-22T15:37:28;30.70;94.60
16578;DHT22;8401;52.528;13.340;2023-06-22T15:39:54;30.40;94.70
16578;DHT22;8401;52.528;13.340;2023-06-22T15:42:21;30.30;94.80
16578;DHT22;8401;52.528;13.340;2023-06-22T15:44:47;30.30;95.10
16578;DHT22;8401;52.528;13.340;2023-06-22T15:47:13;30.20;95.50
16578;DHT22;8401;52.528;13.340;2023-06-22T15:49:38;30.30;95.10